Time;durP1;ratioP1;P1;durP2;ratioP2;P2;SDS_P1;SDS_P2;PMS_P1;PMS_P2;Temp;Humidity;BMP_temperature;BMP_pressure;BME280_temperature;BME280_humidity;BME280_pressure;Samples;Min_cycle;Max_cycle;Signal;HPM_P1;HPM_P2
2023/02/07 06:08:03;;;;;;;27.27;9.93;;;11.30;60.70;;;;;;4857717;29;20061;-77
2023/02/07 06:10:29;;;;;;;26.38;10.52;;;11.50;60.60;;;;;;4862992;29;20070;-78
2023/02/07 06:12:55;;;;;;;28.25;10.93;;;11.70;60.80;;;;;;4862496;29;20042;-77
2023/02/07 06:15:20;;;;;;;25.75;10.70;;;12.00;61.00;;;;;;4862445;29;20089;-78
2023/02/07 06:17:46;;;;;;;30.52;9.43;;;12.10;61.00;;;;;;4864476;29;20038;-80
2023/02/07 06:20:12;;;;;;;23.48;8.73;;;12.30;61.00;;;;;;4865669;29;20042;-77
2023/02/07 06:22:38;;;;;;;26.80;8.20;;;12.40;61.00;;;;;;4866226;29;20133;-79
2023/02/07 06:25:05;;;;;;;22.52;8.98;;;12.60;61.70;;;;;;4834199;29;20200;-82
2023/02/07 06:27:46;;;;;;;19.27;8.18;;;12.70;61.30;;;;;;4849382;29;20488;-80
2023/02/07 06:30:12;;;;;;;26.08;7.82;;;12.80;62.00;;;;;;4865966;29;20046;-82
2023/02/07 06:32:38;;;;;;;26.02;7.40;;;12.90;62.00;;;;;;4849142;29;20185;-78
2023/02/07 06:35:05;;;;;;;18.88;7.00;;;13.10;62.30;;;;;;4849147;29;20080;-82
2023/02/07 06:37:31;;;;;;;26.25;7.60;;;13.10;62.50;;;;;;4864548;29;20049;-78
2023/02/07 06:39:56;;;;;;;15.77;6.22;;;13.20;62.50;;;;;;4849784;29;20037;-82
2023/02/07 06:42:22;;;;;;;21.40;6.97;;;13.40;62.50;;;;;;4866103;29;20038;-76
2023/02/07 06:44:48;;;;;;;32.40;7.07;;;13.40;62.20;;;;;;4866030;29;20457;-80
2023/02/07 06:47:15;;;;;;;20.75;6.85;;;13.50;62.30;;;;;;4859041;29;20041;-80
2023/02/07 06:49:41;;;;;;;23.65;7.57;;;13.50;62.60;;;;;;4865535;29;20064;-81
2023/02/07 06:52:07;;;;;;;20.25;6.22;;;13.60;62.70;;;;;;4865506;29;20071;-79
2023/02/07 06:54:32;;;;;;;18.27;6.82;;;13.70;62.80;;;;;;4865361;29;20128;-78
2023/02/07 06:56:58;;;;;;;19.38;5.45;;;13.80;63.00;;;;;;4864864;29;20088;-75
2023/02/07 06:59:24;;;;;;;17.75;5.60;;;13.90;63.10;;;;;;4865683;29;20139;-76
2023/02/07 07:01:50;;;;;;;18.98;6.20;;;14.00;63.10;;;;;;4865926;29;20338;-75
2023/02/07 07:04:17;;;;;;;21.88;7.78;;;14.00;63.20;;;;;;4865244;29;20452;-71
2023/02/07 07:06:43;;;;;;;39.25;8.60;;;14.00;60.50;;;;;;4864939;29;20057;-77
2023/02/07 07:09:08;;;;;;;30.25;7.18;;;14.10;63.20;;;;;;4848650;29;20137;-76
2023/02/07 07:11:37;;;;;;;39.40;7.85;;;14.10;63.40;;;;;;4865363;29;20097;-77
2023/02/07 07:14:03;;;;;;;43.72;8.55;;;14.20;63.80;;;;;;4849605;29;20129;-78
2023/02/07 07:16:29;;;;;;;43.63;8.10;;;14.20;64.00;;;;;;4865005;29;20042;-77
2023/02/07 07:18:55;;;;;;;37.92;7.40;;;14.30;64.20;;;;;;4864871;29;20054;-76
2023/02/07 07:21:20;;;;;;;37.83;7.65;;;14.40;64.00;;;;;;4864300;29;20049;-75
2023/02/07 07:23:46;;;;;;;26.02;6.97;;;14.40;64.00;;;;;;4864854;29;20045;-76
2023/02/07 07:26:15;;;;;;;32.38;7.47;;;14.50;64.00;;;;;;4865451;29;20061;-79
2023/02/07 07:28:40;;;;;;;25.02;7.13;;;14.60;64.00;;;;;;4847849;29;20045;-75
2023/02/07 07:31:07;;;;;;;25.73;6.63;;;14.60;63.80;;;;;;4865142;29;20053;-75
2023/02/07 07:33:33;;;;;;;32.60;7.15;;;14.60;63.50;;;;;;4848819;29;20045;-76
2023/02/07 07:36:00;;;;;;;22.48;6.15;;;14.70;63.50;;;;;;4864896;29;20045;-76
2023/02/07 07:38:26;;;;;;;27.23;6.50;;;14.80;63.30;;;;;;4848264;29;20088;-75
2023/02/07 07:40:52;;;;;;;23.90;5.80;;;14.80;63.30;;;;;;4849211;29;20089;-75
2023/02/07 07:43:18;;;;;;;26.60;5.90;;;14.80;63.20;;;;;;4864018;29;20045;-74
2023/02/07 07:45:44;;;;;;;21.42;5.78;;;14.90;63.30;;;;;;4865081;29;20053;-76
2023/02/07 07:48:10;;;;;;;25.70;5.70;;;15.00;63.30;;;;;;4864712;29;20052;-76
2023/02/07 07:50:36;;;;;;;20.13;5.50;;;15.00;63.10;;;;;;4864708;29;20057;-77
2023/02/07 07:53:01;;;;;;;17.15;5.60;;;15.00;63.00;;;;;;4848430;29;20084;-76
2023/02/07 07:55:27;;;;;;;20.77;5.45;;;15.10;62.80;;;;;;4865134;29;20059;-77
2023/02/07 07:57:53;;;;;;;19.00;5.20;;;15.10;62.70;;;;;;4848003;29;20467;-74
2023/02/07 08:00:19;;;;;;;15.25;5.20;;;15.10;62.50;;;;;;4864766;29;20057;-75
2023/02/07 08:02:45;;;;;;;21.45;5.07;;;15.10;62.50;;;;;;4863844;29;20129;-76
2023/02/07 08:05:11;;;;;;;19.65;5.78;;;15.20;62.60;;;;;;4864001;29;20137;-74
2023/02/07 08:07:36;;;;;;;18.45;5.47;;;15.10;62.70;;;;;;4863539;29;20079;-76
2023/02/07 08:10:04;;;;;;;19.83;4.80;;;15.20;62.70;;;;;;4863873;29;20065;-74
2023/02/07 08:12:30;;;;;;;12.70;5.43;;;15.20;62.50;;;;;;4863639;29;20524;-76
2023/02/07 08:14:56;;;;;;;18.33;5.03;;;15.20;62.50;;;;;;4861357;29;20045;-76
2023/02/07 08:17:21;;;;;;;17.98;5.07;;;15.20;61.70;;;;;;4863461;29;20046;-74
2023/02/07 08:19:47;;;;;;;16.83;5.15;;;14.60;62.30;;;;;;4863657;29;20057;-75
2023/02/07 08:22:14;;;;;;;21.70;5.07;;;14.80;63.00;;;;;;4864122;29;20456;-73
2023/02/07 08:24:40;;;;;;;15.30;5.15;;;14.90;63.00;;;;;;4864492;29;20053;-75
2023/02/07 08:27:06;;;;;;;19.92;4.82;;;14.90;63.00;;;;;;4864212;29;20054;-74
2023/02/07 08:29:32;;;;;;;25.73;4.90;;;14.90;62.70;;;;;;4847701;29;20665;-75
2023/02/07 08:31:58;;;;;;;15.20;4.43;;;15.00;62.80;;;;;;4847689;29;20148;-73
2023/02/07 08:34:25;;;;;;;14.35;4.60;;;15.20;62.40;;;;;;4863557;29;20053;-74
2023/02/07 08:36:52;;;;;;;15.88;6.72;;;15.20;62.10;;;;;;4864235;29;20065;-77
2023/02/07 08:39:18;;;;;;;13.88;9.00;;;15.20;60.20;;;;;;4863321;29;20053;-74
2023/02/07 08:41:43;;;;;;;15.45;9.95;;;15.20;58.30;;;;;;4862847;29;20148;-72
2023/02/07 08:44:09;;;;;;;14.65;11.43;;;15.20;55.70;;;;;;4863158;29;20128;-71
2023/02/07 08:46:35;;;;;;;16.48;9.75;;;15.00;52.00;;;;;;4864023;29;20053;-69
2023/02/07 08:49:00;;;;;;;13.93;9.88;;;14.80;50.40;;;;;;4863420;29;20349;-74
2023/02/07 08:51:26;;;;;;;12.75;9.15;;;14.60;50.30;;;;;;4863815;29;20057;-72
2023/02/07 08:53:53;;;;;;;13.60;8.25;;;14.50;50.50;;;;;;4847444;29;20057;-75
2023/02/07 08:56:18;;;;;;;15.27;8.48;;;14.40;50.70;;;;;;4863412;29;20064;-77
2023/02/07 08:58:44;;;;;;;10.95;7.05;;;14.50;51.50;;;;;;4863182;29;20405;-75
2023/02/07 09:01:10;;;;;;;8.00;5.07;;;14.50;52.10;;;;;;4862780;29;20078;-76
2023/02/07 09:03:39;;;;;;;8.20;5.35;;;14.60;52.70;;;;;;4862796;29;20045;-71
2023/02/07 09:06:05;;;;;;;11.25;4.97;;;14.70;53.10;;;;;;4862508;29;20049;-74
2023/02/07 09:08:31;;;;;;;8.10;4.72;;;14.80;53.50;;;;;;4862510;29;20065;-76
2023/02/07 09:10:57;;;;;;;9.80;4.75;;;14.80;54.10;;;;;;4861886;29;20433;-74
2023/02/07 09:13:23;;;;;;;10.77;4.30;;;14.90;54.70;;;;;;4862789;29;20064;-74
2023/02/07 09:15:54;;;;;;;8.43;3.47;;;14.90;55.10;;;;;;4846183;29;20050;-76
2023/02/07 09:18:20;;;;;;;9.38;3.38;;;15.00;55.30;;;;;;4862155;29;20136;-76
2023/02/07 09:20:46;;;;;;;6.20;3.50;;;15.00;55.40;;;;;;4862367;29;20422;-73
2023/02/07 09:23:18;;;;;;;6.97;2.90;;;15.10;55.50;;;;;;4862673;29;20050;-76
2023/02/07 09:25:49;;;;;;;6.05;3.13;;;15.10;55.70;;;;;;4862609;29;20105;-75
2023/02/07 09:28:16;;;;;;;7.40;3.30;;;15.10;55.90;;;;;;4846080;29;20089;-76
2023/02/07 09:30:43;;;;;;;6.13;3.50;;;15.20;56.20;;;;;;4862122;29;20442;-77
2023/02/07 09:33:09;;;;;;;6.28;3.28;;;15.10;56.50;;;;;;4862532;29;20045;-75
2023/02/07 09:35:39;;;;;;;7.47;2.92;;;15.20;56.90;;;;;;4862563;29;20054;-75
2023/02/07 09:38:06;;;;;;;6.07;3.20;;;15.30;57.10;;;;;;4861835;29;20346;-71
2023/02/07 09:40:34;;;;;;;7.00;3.20;;;15.40;57.00;;;;;;4862475;29;20132;-71
2023/02/07 09:43:13;;;;;;;4.65;2.70;;;15.40;56.90;;;;;;4860619;29;20521;-75
2023/02/07 09:45:44;;;;;;;8.40;4.63;;;15.40;56.90;;;;;;4862507;29;20046;-75
2023/02/07 09:48:20;;;;;;;8.18;4.15;;;15.00;56.80;;;;;;4861403;29;20053;-76
2023/02/07 09:50:58;;;;;;;13.73;3.80;;;14.60;58.30;;;;;;4862058;29;20113;-78
2023/02/07 09:53:36;;;;;;;5.97;3.15;;;14.40;59.20;;;;;;4862612;29;20125;-75
2023/02/07 09:56:04;;;;;;;8.00;3.90;;;14.50;59.40;;;;;;4862323;29;20112;-75
2023/02/07 09:59:04;;;;;;;9.82;3.80;;;14.60;59.30;;;;;;4861905;29;20049;-76
2023/02/07 10:01:47;;;;;;;8.57;4.00;;;14.60;59.40;;;;;;4861538;29;20053;-76
2023/02/07 10:04:29;;;;;;;8.60;4.55;;;14.70;59.20;;;;;;4845290;29;20057;-76
2023/02/07 10:06:58;;;;;;;5.93;3.28;;;14.60;58.60;;;;;;4861809;29;20054;-80
2023/02/07 10:09:30;;;;;;;5.53;3.78;;;14.70;58.80;;;;;;4860957;29;20476;-72
2023/02/07 10:12:33;;;;;;;10.20;4.60;;;14.70;58.70;;;;;;4861630;29;20070;-70
2023/02/07 10:15:17;;;;;;;8.90;5.40;;;14.60;58.60;;;;;;4845349;29;20469;-75
2023/02/07 10:18:15;;;;;;;9.77;6.07;;;14.60;58.40;;;;;;4861394;29;20085;-72
2023/02/07 10:21:06;;;;;;;9.65;6.38;;;14.60;57.70;;;;;;4819275;29;20069;-70
2023/02/07 10:23:41;;;;;;;13.82;6.30;;;14.60;57.40;;;;;;4842030;29;20106;-74
2023/02/07 10:26:22;;;;;;;10.00;5.68;;;14.60;57.60;;;;;;4861965;29;20052;-75
2023/02/07 10:29:10;;;;;;;14.82;7.38;;;14.50;57.60;;;;;;4862309;29;20057;-73
2023/02/07 10:31:44;;;;;;;14.13;7.18;;;14.50;57.30;;;;;;4861632;29;20076;-75
2023/02/07 10:34:13;;;;;;;12.48;7.22;;;14.50;57.30;;;;;;4862377;29;20091;-77
2023/02/07 10:36:45;;;;;;;15.23;8.00;;;14.50;56.90;;;;;;4862357;29;20082;-76
2023/02/07 10:39:36;;;;;;;20.05;8.75;;;14.40;57.10;;;;;;4861874;29;20136;-77
2023/02/07 10:42:02;;;;;;;12.00;7.07;;;14.40;57.20;;;;;;4862288;29;20053;-76
2023/02/07 10:44:28;;;;;;;16.52;7.55;;;14.40;57.60;;;;;;4862299;29;20049;-71
2023/02/07 10:47:03;;;;;;;13.80;7.80;;;14.30;57.70;;;;;;4862199;29;20042;-71
2023/02/07 10:49:35;;;;;;;15.73;7.65;;;14.30;57.70;;;;;;4845933;29;20069;-71
2023/02/07 10:52:22;;;;;;;30.55;9.00;;;14.30;57.80;;;;;;4862672;29;20045;-73
2023/02/07 10:54:57;;;;;;;17.88;7.93;;;14.30;58.20;;;;;;4861998;29;20450;-72
2023/02/07 10:57:24;;;;;;;19.77;7.63;;;14.30;58.10;;;;;;4861733;29;20053;-73
2023/02/07 10:59:58;;;;;;;19.67;7.28;;;14.30;58.00;;;;;;4861356;29;20197;-72
2023/02/07 11:02:27;;;;;;;11.80;7.05;;;14.20;57.70;;;;;;4861328;29;20089;-72
2023/02/07 11:04:55;;;;;;;15.32;6.13;;;14.20;57.80;;;;;;4864391;29;20057;-77
2023/02/07 11:07:21;;;;;;;15.43;6.35;;;14.20;57.90;;;;;;4864943;29;20470;-75
2023/02/07 11:09:48;;;;;;;10.00;5.78;;;14.20;58.00;;;;;;4865405;29;20077;-76
2023/02/07 11:12:19;;;;;;;17.65;5.57;;;14.10;58.10;;;;;;4880975;29;20045;-71
2023/02/07 11:15:00;;;;;;;11.32;5.90;;;14.10;58.20;;;;;;4877945;29;20045;-75
2023/02/07 11:17:27;;;;;;;9.52;4.72;;;14.10;58.50;;;;;;4848849;29;20117;-71
2023/02/07 11:19:53;;;;;;;9.70;5.90;;;14.10;58.50;;;;;;4864251;29;20059;-72
2023/02/07 11:22:26;;;;;;;10.13;4.57;;;14.10;59.10;;;;;;4848192;29;20132;-70
2023/02/07 11:25:01;;;;;;;8.48;3.70;;;14.10;59.20;;;;;;4867251;29;20108;-71
2023/02/07 11:27:27;;;;;;;8.10;4.43;;;14.10;59.20;;;;;;4856282;29;20045;-73
2023/02/07 11:29:57;;;;;;;4.68;3.03;;;14.10;59.10;;;;;;4865210;29;20050;-72
2023/02/07 11:32:25;;;;;;;13.07;5.75;;;14.10;59.60;;;;;;4864967;29;20137;-71
2023/02/07 11:35:08;;;;;;;8.93;4.53;;;14.10;59.50;;;;;;4865216;29;20053;-72
2023/02/07 11:37:40;;;;;;;10.20;5.63;;;14.10;59.70;;;;;;4864989;29;20125;-71
2023/02/07 11:40:18;;;;;;;10.15;5.97;;;14.10;59.70;;;;;;4865329;29;20088;-70
2023/02/07 11:42:48;;;;;;;9.98;6.53;;;14.10;60.90;;;;;;4864745;29;20050;-70
2023/02/07 11:45:16;;;;;;;11.93;7.93;;;14.10;60.40;;;;;;4864646;29;20479;-70
2023/02/07 11:47:47;;;;;;;11.05;7.57;;;14.10;60.60;;;;;;4864948;29;20467;-69
2023/02/07 11:50:40;;;;;;;11.20;8.68;;;14.10;61.00;;;;;;4864680;29;20041;-73
2023/02/07 11:53:16;;;;;;;14.35;10.65;;;14.20;61.30;;;;;;4865039;29;20440;-74
2023/02/07 11:55:43;;;;;;;17.55;11.85;;;14.10;57.90;;;;;;4864214;29;20049;-69
2023/02/07 11:58:35;;;;;;;15.32;10.65;;;14.10;55.20;;;;;;4864806;29;20113;-79
2023/02/07 12:01:04;;;;;;;16.33;10.55;;;14.10;56.70;;;;;;4847898;29;20060;-73
2023/02/07 12:03:47;;;;;;;15.68;11.23;;;14.00;59.40;;;;;;4848528;29;20071;-72
2023/02/07 12:06:17;;;;;;;17.70;10.98;;;14.00;64.60;;;;;;4864963;29;20061;-77
2023/02/07 12:08:43;;;;;;;16.02;9.23;;;14.00;65.80;;;;;;4864168;29;20053;-74
2023/02/07 12:11:21;;;;;;;10.90;7.28;;;14.10;62.60;;;;;;4864754;29;20050;-76
2023/02/07 12:13:59;;;;;;;12.13;7.32;;;14.20;61.10;;;;;;4863196;29;20061;-75
2023/02/07 12:16:30;;;;;;;9.80;6.65;;;14.40;61.10;;;;;;4864426;29;20050;-75
2023/02/07 12:19:28;;;;;;;10.38;6.07;;;14.40;61.50;;;;;;4864343;29;20117;-76
2023/02/07 12:22:17;;;;;;;10.48;5.40;;;14.60;62.10;;;;;;4859993;29;20489;-75
2023/02/07 12:24:53;;;;;;;10.48;4.63;;;14.70;62.20;;;;;;4864400;29;20056;-74
2023/02/07 12:27:26;;;;;;;8.77;5.35;;;14.70;62.20;;;;;;4864113;29;20079;-75
2023/02/07 12:29:58;;;;;;;8.07;5.73;;;14.80;62.20;;;;;;4862445;29;20084;-76
2023/02/07 12:32:39;;;;;;;10.50;5.38;;;14.50;61.10;;;;;;4863990;29;20049;-75
2023/02/07 12:35:23;;;;;;;11.02;4.38;;;14.20;61.60;;;;;;4863167;29;20045;-77
2023/02/07 12:38:14;;;;;;;9.45;3.85;;;14.40;63.20;;;;;;4847654;29;20053;-77
2023/02/07 12:40:49;;;;;;;10.77;4.47;;;14.60;63.70;;;;;;4863583;29;20365;-74
2023/02/07 12:43:26;;;;;;;7.97;3.83;;;14.70;63.00;;;;;;4863747;29;20080;-75
2023/02/07 12:46:03;;;;;;;8.95;3.40;;;14.90;62.70;;;;;;4863450;29;20473;-75
2023/02/07 12:48:56;;;;;;;11.63;4.38;;;15.00;62.30;;;;;;4863264;29;20061;-75
2023/02/07 12:51:51;;;;;;;8.73;3.63;;;15.00;62.20;;;;;;4862997;29;20449;-75
2023/02/07 12:54:33;;;;;;;7.70;2.90;;;15.20;61.90;;;;;;4863354;29;20058;-75
2023/02/07 12:57:16;;;;;;;8.85;3.17;;;15.30;61.70;;;;;;4863535;29;20124;-78
2023/02/07 13:00:01;;;;;;;6.65;2.80;;;15.40;61.60;;;;;;4864090;29;20049;-76
2023/02/07 13:02:47;;;;;;;9.85;3.17;;;15.50;61.40;;;;;;4863482;29;20471;-78
2023/02/07 13:05:19;;;;;;;8.13;3.05;;;15.50;61.40;;;;;;4863636;29;20052;-76
2023/02/07 13:07:56;;;;;;;9.30;3.53;;;15.50;61.40;;;;;;4863043;29;20156;-78
2023/02/07 13:11:09;;;;;;;16.67;3.10;;;15.50;61.40;;;;;;4862086;29;20049;-75
2023/02/07 13:13:50;;;;;;;5.95;3.05;;;15.50;61.50;;;;;;4837499;29;20057;-76
2023/02/07 13:16:23;;;;;;;11.48;3.95;;;15.50;61.40;;;;;;4862903;29;20469;-76
2023/02/07 13:19:12;;;;;;;14.27;3.67;;;15.40;61.60;;;;;;4863232;29;20060;-74
2023/02/07 13:21:59;;;;;;;14.20;3.75;;;15.30;61.70;;;;;;4863249;29;20430;-76
2023/02/07 13:24:27;;;;;;;10.10;3.55;;;15.30;61.90;;;;;;4862959;29;20136;-77
2023/02/07 13:27:04;;;;;;;15.18;3.35;;;15.30;62.10;;;;;;4862515;29;20128;-74
2023/02/07 13:29:33;;;;;;;9.60;3.17;;;15.20;62.00;;;;;;4846832;29;20061;-73
2023/02/07 13:32:11;;;;;;;10.00;3.60;;;15.20;61.90;;;;;;4863529;29;20368;-74
2023/02/07 13:34:54;;;;;;;11.98;3.72;;;15.20;62.40;;;;;;4863167;29;20049;-72
2023/02/07 13:37:27;;;;;;;9.50;3.77;;;15.10;61.70;;;;;;4862679;29;20064;-72
2023/02/07 13:40:12;;;;;;;18.02;3.65;;;15.10;61.70;;;;;;4863106;29;20049;-74
2023/02/07 13:42:49;;;;;;;7.28;3.05;;;15.00;61.60;;;;;;4862953;29;20200;-72
2023/02/07 13:45:39;;;;;;;8.70;3.75;;;15.00;61.70;;;;;;4863003;29;20129;-73
2023/02/07 13:48:25;;;;;;;7.95;3.90;;;15.00;61.40;;;;;;4862914;29;20068;-74
2023/02/07 13:51:27;;;;;;;11.98;4.07;;;14.90;61.40;;;;;;4862845;29;20065;-73
2023/02/07 13:53:58;;;;;;;8.15;3.85;;;14.90;61.40;;;;;;4850576;29;20088;-74
2023/02/07 13:59:37;;;;;;;6.93;3.75;;;14.80;61.40;;;;;;4862380;29;20470;-73
2023/02/07 14:02:10;;;;;;;8.25;4.18;;;14.70;61.30;;;;;;4862393;29;20068;-73
2023/02/07 14:04:57;;;;;;;6.55;3.78;;;14.70;61.40;;;;;;4863149;29;20069;-73
2023/02/07 14:07:30;;;;;;;5.78;3.80;;;14.70;61.30;;;;;;4862822;29;20054;-73
2023/02/07 14:09:57;;;;;;;9.15;4.03;;;14.60;61.40;;;;;;4861743;29;20058;-72
2023/02/07 14:12:25;;;;;;;5.22;3.55;;;14.60;61.40;;;;;;4863133;29;20144;-72
2023/02/07 14:14:51;;;;;;;7.65;4.93;;;14.60;62.10;;;;;;4862625;29;20041;-74
2023/02/07 14:17:25;;;;;;;5.82;3.78;;;14.60;62.10;;;;;;4862845;29;20069;-73
2023/02/07 14:19:56;;;;;;;5.72;4.05;;;14.50;61.40;;;;;;4862721;29;20053;-73
2023/02/07 14:22:40;;;;;;;9.10;4.03;;;14.50;61.60;;;;;;4846392;29;20065;-74
2023/02/07 14:25:05;;;;;;;7.75;3.97;;;14.50;61.50;;;;;;4861958;29;20045;-74
2023/02/07 14:27:38;;;;;;;7.75;4.32;;;14.50;61.60;;;;;;4862475;29;20058;-73
2023/02/07 14:30:43;;;;;;;7.43;4.40;;;14.50;61.60;;;;;;4862654;29;20049;-72
2023/02/07 14:33:20;;;;;;;5.82;3.97;;;14.50;61.50;;;;;;4855470;29;20093;-74
2023/02/07 14:36:06;;;;;;;7.95;4.32;;;14.40;61.60;;;;;;4862260;29;20050;-73
2023/02/07 14:38:35;;;;;;;4.80;3.85;;;14.40;61.50;;;;;;4864810;29;20136;-72
2023/02/07 14:41:14;;;;;;;6.72;4.07;;;14.40;61.60;;;;;;4864786;29;20133;-75
2023/02/07 14:43:42;;;;;;;9.05;4.15;;;14.40;61.60;;;;;;4864895;29;20093;-72
2023/02/07 14:46:15;;;;;;;10.25;4.53;;;14.40;61.70;;;;;;4865107;29;20049;-77
2023/02/07 14:48:57;;;;;;;8.98;4.55;;;14.40;62.10;;;;;;4864884;29;20064;-78
2023/02/07 14:51:38;;;;;;;9.73;4.72;;;14.40;62.20;;;;;;4865784;29;20053;-78
2023/02/07 14:54:35;;;;;;;10.82;5.20;;;14.30;62.20;;;;;;4865905;29;20053;-76
2023/02/07 14:57:16;;;;;;;11.93;5.43;;;14.30;62.50;;;;;;4865547;29;20057;-77
2023/02/07 14:59:47;;;;;;;10.02;4.55;;;14.30;62.70;;;;;;4865843;29;20500;-76
2023/02/07 15:02:34;;;;;;;12.15;4.53;;;14.30;62.90;;;;;;4865222;29;20045;-75
2023/02/07 15:05:12;;;;;;;8.88;4.53;;;14.30;63.00;;;;;;4862568;29;20110;-75
2023/02/07 15:07:39;;;;;;;10.65;4.35;;;14.20;63.00;;;;;;4865810;29;20065;-75
2023/02/07 15:10:21;;;;;;;11.35;4.95;;;14.20;63.00;;;;;;4865604;29;20133;-73
2023/02/07 15:12:48;;;;;;;10.38;4.97;;;14.20;63.10;;;;;;4865383;29;20132;-74
2023/02/07 15:15:20;;;;;;;14.98;5.30;;;14.20;63.20;;;;;;4865433;29;20089;-75
2023/02/07 15:17:48;;;;;;;42.08;9.30;;;14.20;63.30;;;;;;4849921;29;20049;-74
2023/02/07 15:20:16;;;;;;;31.77;7.80;;;14.20;63.40;;;;;;4849759;29;20058;-75
2023/02/07 15:22:45;;;;;;;28.55;8.35;;;14.10;63.60;;;;;;4864477;29;20053;-75
2023/02/07 15:25:13;;;;;;;23.63;6.95;;;14.00;64.20;;;;;;4864259;29;20049;-76
2023/02/07 15:27:39;;;;;;;23.58;7.40;;;13.90;64.40;;;;;;4837985;29;20122;-76
2023/02/07 15:30:07;;;;;;;30.40;7.63;;;14.00;64.30;;;;;;4856915;29;20049;-76
2023/02/07 15:32:41;;;;;;;30.77;8.05;;;13.90;64.40;;;;;;4848951;29;20125;-74
2023/02/07 15:35:27;;;;;;;;;;;14.00;64.90;;;;;;4864904;29;20053;-73
2023/02/07 15:37:54;;;;;;;25.05;7.50;;;13.90;65.70;;;;;;4865830;29;19924;-73
2023/02/07 15:40:22;;;;;;;21.60;8.02;;;13.80;65.50;;;;;;4864946;29;20102;-74
2023/02/07 15:42:56;;;;;;;32.75;7.40;;;13.80;65.70;;;;;;4865009;29;20056;-73
2023/02/07 15:45:27;;;;;;;30.33;10.43;;;13.80;65.30;;;;;;4864252;29;20053;-73
2023/02/07 15:48:05;;;;;;;28.10;11.18;;;13.80;64.60;;;;;;4848567;29;20134;-78
2023/02/07 15:50:32;;;;;;;26.90;8.90;;;13.80;62.30;;;;;;4864045;29;20058;-77
2023/02/07 15:53:03;;;;;;;24.63;9.43;;;13.90;61.90;;;;;;4864410;29;20041;-74
2023/02/07 15:55:44;;;;;;;35.35;9.68;;;13.90;61.60;;;;;;4863288;29;20358;-78
2023/02/07 15:58:27;;;;;;;29.98;9.65;;;13.90;61.00;;;;;;4863029;29;20377;-76
2023/02/07 16:01:00;;;;;;;33.13;9.47;;;14.10;61.00;;;;;;4865030;29;20341;-75
2023/02/07 16:03:29;;;;;;;36.47;9.32;;;14.30;61.10;;;;;;4848499;29;20069;-76
2023/02/07 16:06:22;;;;;;;30.65;7.85;;;14.40;61.10;;;;;;4864353;29;20369;-74
2023/02/07 16:08:53;;;;;;;37.67;8.35;;;14.60;61.50;;;;;;4862964;29;20071;-74
2023/02/07 16:11:34;;;;;;;27.50;8.32;;;14.70;61.30;;;;;;4848342;29;20045;-76
2023/02/07 16:14:10;;;;;;;38.15;9.40;;;14.80;60.10;;;;;;4864200;29;20121;-76
2023/02/07 16:16:39;;;;;;;38.55;9.43;;;14.90;60.20;;;;;;4863925;29;20053;-76
2023/02/07 16:19:14;;;;;;;37.80;9.48;;;14.90;60.20;;;;;;4864386;29;20065;-73
2023/02/07 16:21:43;;;;;;;33.40;9.05;;;15.00;60.90;;;;;;4864371;29;20045;-76
2023/02/07 16:24:22;;;;;;;32.05;8.32;;;15.10;61.50;;;;;;4863283;29;20059;-75
2023/02/07 16:26:49;;;;;;;31.40;6.95;;;15.20;61.70;;;;;;4864306;29;20045;-76
2023/02/07 16:29:19;;;;;;;36.38;8.05;;;15.30;61.80;;;;;;4864067;29;20057;-76
2023/02/07 16:31:45;;;;;;;27.00;7.07;;;15.40;61.80;;;;;;4847972;29;20361;-73
2023/02/07 16:34:17;;;;;;;26.15;6.57;;;15.40;61.70;;;;;;4848503;29;20361;-75
2023/02/07 16:36:43;;;;;;;29.92;6.75;;;15.50;61.90;;;;;;4847452;29;20045;-75
2023/02/07 16:39:09;;;;;;;22.90;6.47;;;15.50;61.90;;;;;;4863895;29;20071;-73
2023/02/07 16:41:40;;;;;;;40.78;7.88;;;15.60;62.20;;;;;;4864083;29;20049;-75
2023/02/07 16:44:10;;;;;;;44.63;8.35;;;15.50;62.20;;;;;;4863242;29;20161;-74
2023/02/07 16:46:37;;;;;;;56.55;9.23;;;15.50;62.40;;;;;;4863682;29;20105;-73
2023/02/07 16:49:16;;;;;;;54.40;10.55;;;15.60;63.20;;;;;;4863122;29;20049;-73
2023/02/07 16:51:43;;;;;;;49.83;11.27;;;15.60;62.60;;;;;;4863715;29;20053;-73
2023/02/07 16:54:12;;;;;;;92.90;14.35;;;15.70;62.60;;;;;;4863678;29;20468;-72
2023/02/07 16:56:38;;;;;;;95.75;12.52;;;15.60;62.60;;;;;;4862719;29;20353;-74
2023/02/07 16:59:06;;;;;;;79.13;13.95;;;15.60;62.90;;;;;;4863695;29;20042;-73
2023/02/07 17:01:32;;;;;;;82.75;12.55;;;15.60;62.90;;;;;;4862507;29;20064;-73
2023/02/07 17:03:58;;;;;;;75.43;11.93;;;15.60;63.00;;;;;;4863258;29;20054;-74
2023/02/07 17:06:25;;;;;;;72.50;10.55;;;15.60;63.20;;;;;;4863406;29;20089;-74
2023/02/07 17:08:52;;;;;;;68.10;11.45;;;15.70;63.20;;;;;;4863002;29;20487;-74
2023/02/07 17:11:26;;;;;;;74.72;12.15;;;15.60;63.20;;;;;;4863025;29;20072;-75
2023/02/07 17:13:53;;;;;;;64.88;10.65;;;15.60;63.30;;;;;;4863100;29;20053;-73
2023/02/07 17:16:20;;;;;;;67.15;11.75;;;15.60;63.20;;;;;;4863264;29;20049;-74
2023/02/07 17:18:46;;;;;;;52.08;10.35;;;15.60;61.90;;;;;;4872587;29;20045;-75
2023/02/07 17:21:13;;;;;;;46.60;9.10;;;15.60;61.40;;;;;;4863355;29;20060;-81
2023/02/07 17:23:39;;;;;;;41.45;8.27;;;15.60;61.20;;;;;;4863292;29;20045;-75
2023/02/07 17:26:30;;;;;;;45.90;8.85;;;15.60;61.30;;;;;;4862894;29;20115;-73
2023/02/07 17:28:57;;;;;;;61.97;10.52;;;15.60;61.50;;;;;;4862957;29;20042;-73
2023/02/07 17:31:23;;;;;;;52.15;9.57;;;15.60;62.00;;;;;;4862890;29;20120;-73
2023/02/07 17:33:50;;;;;;;49.78;8.63;;;15.60;62.30;;;;;;4862650;29;20049;-73
2023/02/07 17:36:16;;;;;;;39.88;9.63;;;15.60;62.40;;;;;;4862284;29;20057;-79
2023/02/07 17:38:43;;;;;;;37.28;7.28;;;15.50;62.60;;;;;;4862566;29;20041;-80
2023/02/07 18:20:23;;;;;;;16.45;8.82;;;14.90;58.10;;;;;;4953133;23;20489;-69
2023/02/07 18:24:21;;;;;;;12.13;9.10;;;14.90;53.60;;;;;;5126993;27;20817;-69
2023/02/07 18:26:46;;;;;;;15.52;9.02;;;14.70;52.00;;;;;;5102328;28;20043;-70
